createdAt,value
2023-01-25T00:00:13.665Z,1.66
2023-01-25T00:01:17.862Z,1.66
2023-01-25T00:02:22.112Z,1.66
2023-01-25T00:03:26.236Z,1.67
2023-01-25T00:04:30.425Z,1.68
2023-01-25T00:05:34.434Z,1.69
2023-01-25T00:06:38.620Z,1.70
2023-01-25T00:07:45.775Z,1.71
2023-01-25T00:08:48.976Z,1.72
2023-01-25T00:09:53.129Z,1.73
2023-01-25T00:10:58.548Z,1.75
2023-01-25T00:12:04.465Z,1.76
2023-01-25T00:13:07.635Z,1.77
2023-01-25T00:14:11.752Z,1.77
2023-01-25T00:15:15.907Z,1.76
2023-01-25T00:16:20.212Z,1.75
2023-01-25T00:17:25.227Z,1.75
2023-01-25T00:18:29.066Z,1.73
2023-01-25T00:19:33.218Z,1.70
2023-01-25T00:20:37.282Z,1.68
2023-01-25T00:21:41.424Z,1.67
2023-01-25T00:22:45.666Z,1.68
2023-01-25T00:23:49.802Z,1.67
2023-01-25T00:24:53.977Z,1.63
2023-01-25T00:25:58.843Z,1.57
2023-01-25T00:27:02.286Z,1.51
2023-01-25T00:28:06.300Z,1.47
2023-01-25T00:29:10.612Z,1.44
2023-01-25T00:30:14.697Z,1.40
2023-01-25T00:32:45.667Z,1.40
2023-01-25T00:33:49.468Z,1.41
2023-01-25T00:34:53.589Z,1.43
2023-01-25T00:35:57.764Z,1.46
2023-01-25T00:37:01.976Z,1.48
2023-01-25T00:38:06.048Z,1.51
2023-01-25T00:39:10.271Z,1.54
2023-01-25T00:40:14.311Z,1.56
2023-01-25T00:41:18.478Z,1.57
2023-01-25T00:42:22.742Z,1.57
2023-01-25T00:43:41.010Z,1.58
2023-01-25T00:44:43.834Z,1.56
2023-01-25T00:45:47.960Z,1.55
2023-01-25T00:46:52.061Z,1.54
2023-01-25T00:47:56.241Z,1.54
2023-01-25T00:49:00.285Z,1.55
2023-01-25T00:50:04.464Z,1.56
2023-01-25T00:51:08.497Z,1.57
2023-01-25T00:52:12.649Z,1.58
2023-01-25T00:53:16.796Z,1.60
2023-01-25T00:54:21.006Z,1.60
2023-01-25T00:55:25.084Z,1.60
2023-01-25T00:56:29.304Z,1.59
2023-01-25T00:57:36.342Z,1.57
2023-01-25T00:58:39.596Z,1.54
2023-01-25T00:59:43.673Z,1.51
2023-01-25T01:00:47.945Z,1.49
2023-01-25T01:01:51.963Z,1.48
2023-01-25T01:02:56.158Z,1.45
2023-01-25T01:04:00.449Z,1.42
2023-01-25T01:05:04.771Z,1.40
2023-01-25T01:06:08.560Z,1.40
2023-01-25T01:07:12.796Z,1.41
2023-01-25T01:08:17.015Z,1.42
2023-01-25T01:09:21.001Z,1.43
2023-01-25T01:10:25.239Z,1.44
2023-01-25T01:11:29.388Z,1.45
2023-01-25T01:12:33.422Z,1.45
2023-01-25T01:13:37.638Z,1.45
2023-01-25T01:14:41.803Z,1.46
2023-01-25T01:15:45.879Z,1.45
2023-01-25T01:16:50.100Z,1.43
2023-01-25T01:17:54.232Z,1.41
2023-01-25T01:18:58.384Z,1.39
2023-01-25T01:20:02.426Z,1.38
2023-01-25T01:21:06.638Z,1.38
2023-01-25T01:22:10.753Z,1.39
2023-01-25T01:23:14.979Z,1.40
2023-01-25T01:24:19.042Z,1.41
2023-01-25T01:25:23.272Z,1.42
2023-01-25T01:26:27.388Z,1.42
2023-01-25T01:27:31.613Z,1.45
2023-01-25T01:28:35.728Z,1.46
2023-01-25T01:29:39.897Z,1.47
2023-01-25T01:30:44.001Z,1.49
2023-01-25T01:31:48.098Z,1.50
2023-01-25T01:32:52.278Z,1.53
2023-01-25T01:33:59.336Z,1.54
2023-01-25T01:35:02.519Z,1.54
2023-01-25T01:36:06.702Z,1.54
2023-01-25T01:37:10.896Z,1.53
2023-01-25T01:38:14.978Z,1.52
2023-01-25T01:39:19.004Z,1.50
2023-01-25T01:40:23.263Z,1.48
2023-01-25T01:41:27.412Z,1.47
2023-01-25T01:42:31.534Z,1.46
2023-01-25T01:43:35.711Z,1.45
2023-01-25T01:44:39.944Z,1.45
2023-01-25T01:45:44.135Z,1.46
2023-01-25T01:46:48.151Z,1.46
2023-01-25T01:47:52.349Z,1.46
2023-01-25T01:48:56.371Z,1.47
2023-01-25T01:50:00.571Z,1.47
2023-01-25T01:51:04.771Z,1.48
2023-01-25T01:52:08.956Z,1.49
2023-01-25T01:53:13.036Z,1.49
2023-01-25T01:54:17.294Z,1.49
2023-01-25T01:55:21.257Z,1.50
2023-01-25T01:56:25.622Z,1.51
2023-01-25T01:57:29.666Z,1.52
2023-01-25T01:58:33.808Z,1.51
2023-01-25T01:59:37.839Z,1.51
2023-01-25T02:00:42.053Z,1.50
2023-01-25T02:01:46.220Z,1.49
2023-01-25T02:02:50.448Z,1.49
2023-01-25T02:03:54.441Z,1.48
2023-01-25T02:04:58.495Z,1.47
2023-01-25T02:06:02.754Z,1.46
2023-01-25T02:07:06.908Z,1.45
2023-01-25T02:08:11.114Z,1.44
2023-01-25T02:09:15.211Z,1.42
2023-01-25T02:10:19.352Z,1.40
2023-01-25T02:11:23.473Z,1.38
2023-01-25T02:12:27.623Z,1.35
2023-01-25T02:13:37.818Z,1.31
2023-01-25T02:14:40.515Z,1.28
2023-01-25T02:15:44.623Z,1.27
2023-01-25T02:16:48.766Z,1.28
2023-01-25T02:17:52.858Z,1.28
2023-01-25T02:18:57.011Z,1.29
2023-01-25T02:20:01.062Z,1.30
2023-01-25T02:21:05.259Z,1.31
2023-01-25T02:22:09.287Z,1.32
2023-01-25T02:23:13.502Z,1.32
2023-01-25T02:24:17.782Z,1.32
2023-01-25T02:25:21.757Z,1.33
2023-01-25T02:26:25.809Z,1.33
2023-01-25T02:27:30.036Z,1.33
2023-01-25T02:28:34.172Z,1.33
2023-01-25T02:29:38.470Z,1.33
2023-01-25T02:30:42.579Z,1.34
2023-01-25T02:31:46.858Z,1.34
2023-01-25T02:32:50.826Z,1.33
2023-01-25T02:33:54.954Z,1.32
2023-01-25T02:34:59.175Z,1.30
2023-01-25T02:36:09.440Z,1.28
2023-01-25T02:37:12.144Z,1.27
2023-01-25T02:38:16.234Z,1.27
2023-01-25T02:39:20.761Z,1.27
2023-01-25T02:40:24.361Z,1.26
2023-01-25T02:41:28.594Z,1.25
2023-01-25T02:42:32.805Z,1.23
2023-01-25T02:43:37.045Z,1.22
2023-01-25T02:44:41.030Z,1.20
2023-01-25T02:45:45.330Z,1.20
2023-01-25T02:46:49.427Z,1.19
2023-01-25T02:47:53.629Z,1.18
2023-01-25T02:48:57.696Z,1.16
2023-01-25T02:50:01.742Z,1.16
2023-01-25T02:51:05.917Z,1.16
2023-01-25T02:52:10.005Z,1.17
2023-01-25T02:53:14.082Z,1.18
2023-01-25T02:54:18.328Z,1.19
2023-01-25T02:55:22.303Z,1.19
2023-01-25T02:56:26.497Z,1.19
2023-01-25T02:57:30.538Z,1.21
2023-01-25T02:58:34.669Z,1.22
2023-01-25T02:59:38.773Z,1.22
2023-01-25T03:00:42.908Z,1.22
2023-01-25T03:01:47.186Z,1.22
2023-01-25T03:02:51.245Z,1.22
2023-01-25T03:03:55.335Z,1.22
2023-01-25T03:04:59.408Z,1.23
2023-01-25T03:06:03.559Z,1.23
2023-01-25T03:07:08.649Z,1.24
2023-01-25T03:08:12.432Z,1.23
2023-01-25T03:09:16.552Z,1.21
2023-01-25T03:10:20.692Z,1.20
2023-01-25T03:11:24.808Z,1.20
2023-01-25T03:12:28.996Z,1.19
2023-01-25T03:13:33.151Z,1.19
2023-01-25T03:14:37.204Z,1.19
2023-01-25T03:15:44.391Z,1.20
2023-01-25T03:16:47.604Z,1.21
2023-01-25T03:17:51.688Z,1.20
2023-01-25T03:18:55.819Z,1.20
2023-01-25T03:20:00.032Z,1.19
2023-01-25T03:21:04.215Z,1.19
2023-01-25T03:22:08.278Z,1.19
2023-01-25T03:23:12.317Z,1.18
2023-01-25T03:24:16.639Z,1.19
2023-01-25T03:25:20.669Z,1.18
2023-01-25T03:26:24.883Z,1.16
2023-01-25T03:27:29.006Z,1.14
2023-01-25T03:28:33.286Z,1.14
2023-01-25T03:29:37.377Z,1.14
2023-01-25T03:30:41.484Z,1.14
2023-01-25T03:31:45.631Z,1.14
2023-01-25T03:32:49.714Z,1.15
2023-01-25T03:33:53.868Z,1.15
2023-01-25T03:34:57.997Z,1.17
2023-01-25T03:36:02.309Z,1.18
2023-01-25T03:37:06.415Z,1.18
2023-01-25T03:38:10.575Z,1.19
2023-01-25T03:39:14.674Z,1.18
2023-01-25T03:40:18.850Z,1.19
2023-01-25T03:41:22.858Z,1.19
2023-01-25T03:42:27.121Z,1.20
2023-01-25T03:43:31.352Z,1.20
2023-01-25T03:44:35.382Z,1.21
2023-01-25T03:45:39.567Z,1.18
2023-01-25T03:46:43.745Z,1.11
2023-01-25T03:47:47.879Z,1.03
2023-01-25T03:48:52.014Z,0.97
2023-01-25T03:49:56.321Z,0.94
2023-01-25T03:51:00.355Z,0.94
2023-01-25T03:52:04.607Z,0.95
2023-01-25T03:53:08.754Z,0.97
2023-01-25T03:54:12.809Z,0.99
2023-01-25T03:55:16.989Z,1.00
2023-01-25T03:56:21.032Z,1.02
2023-01-25T03:57:25.304Z,1.03
2023-01-25T03:58:29.444Z,1.03
2023-01-25T03:59:33.474Z,1.04
2023-01-25T04:00:37.661Z,1.02
2023-01-25T04:01:44.738Z,1.01
2023-01-25T04:02:47.867Z,1.00
2023-01-25T04:03:51.911Z,1.01
2023-01-25T04:04:56.179Z,1.00
2023-01-25T04:06:00.404Z,0.99
2023-01-25T04:07:04.475Z,0.98
2023-01-25T04:08:08.721Z,0.97
2023-01-25T04:09:12.684Z,0.96
2023-01-25T04:10:17.024Z,0.94
2023-01-25T04:11:21.067Z,0.92
2023-01-25T04:12:25.227Z,0.90
2023-01-25T04:13:29.303Z,0.89
2023-01-25T04:14:43.902Z,0.89
2023-01-25T04:15:37.639Z,0.89
2023-01-25T04:16:41.827Z,0.89
2023-01-25T04:17:45.871Z,0.89
2023-01-25T04:18:50.003Z,0.89
2023-01-25T04:19:54.193Z,0.90
2023-01-25T04:20:58.276Z,0.92
2023-01-25T04:22:02.299Z,0.92
2023-01-25T04:23:06.506Z,0.94
2023-01-25T04:24:10.651Z,0.96
2023-01-25T04:25:14.751Z,0.97
2023-01-25T04:26:18.960Z,0.99
2023-01-25T04:27:23.123Z,1.00
2023-01-25T04:28:27.245Z,1.01
2023-01-25T04:29:40.488Z,1.01
2023-01-25T04:30:35.571Z,1.01
2023-01-25T04:31:39.803Z,1.02
2023-01-25T04:32:44.076Z,1.01
2023-01-25T04:33:50.105Z,0.96
2023-01-25T04:34:52.174Z,0.92
2023-01-25T04:35:56.343Z,0.88
2023-01-25T04:37:00.485Z,0.83
2023-01-25T04:38:04.469Z,0.78
2023-01-25T04:39:08.676Z,0.77
2023-01-25T04:40:12.866Z,0.77
2023-01-25T04:41:16.885Z,0.79
2023-01-25T04:42:21.068Z,0.81
2023-01-25T04:43:25.397Z,0.83
2023-01-25T04:44:29.398Z,0.85
2023-01-25T04:45:33.674Z,0.88
2023-01-25T04:46:37.592Z,0.90
2023-01-25T04:47:41.801Z,0.91
2023-01-25T04:48:46.059Z,0.92
2023-01-25T04:49:50.227Z,0.92
2023-01-25T04:50:54.226Z,0.92
2023-01-25T04:51:58.329Z,0.91
2023-01-25T04:53:02.533Z,0.91
2023-01-25T04:54:06.632Z,0.91
2023-01-25T04:55:11.187Z,0.90
2023-01-25T04:56:14.910Z,0.87
2023-01-25T04:57:19.133Z,0.81
2023-01-25T04:58:23.193Z,0.74
2023-01-25T04:59:27.312Z,0.72
2023-01-25T05:01:58.574Z,0.74
2023-01-25T05:03:02.653Z,0.77
2023-01-25T05:04:06.790Z,0.80
2023-01-25T05:05:11.230Z,0.81
2023-01-25T05:06:15.153Z,0.80
2023-01-25T05:07:19.331Z,0.82
2023-01-25T05:08:23.377Z,0.83
2023-01-25T05:09:27.415Z,0.85
2023-01-25T05:10:31.589Z,0.83
2023-01-25T05:11:35.795Z,0.79
2023-01-25T05:12:39.760Z,0.75
2023-01-25T05:13:43.972Z,0.71
2023-01-25T05:14:48.093Z,0.70
2023-01-25T05:15:52.233Z,0.71
2023-01-25T05:16:56.568Z,0.74
2023-01-25T05:18:00.546Z,0.76
2023-01-25T05:19:05.581Z,0.78
2023-01-25T05:20:10.196Z,0.81
2023-01-25T05:21:14.041Z,0.84
2023-01-25T05:22:18.171Z,0.86
2023-01-25T05:23:22.304Z,0.89
2023-01-25T05:24:26.518Z,0.91
2023-01-25T05:25:30.579Z,0.92
2023-01-25T05:26:34.752Z,0.93
2023-01-25T05:27:38.845Z,0.90
2023-01-25T05:28:42.975Z,0.83
2023-01-25T05:29:47.091Z,0.80
2023-01-25T05:30:51.298Z,0.77
2023-01-25T05:31:55.397Z,0.71
2023-01-25T05:32:59.474Z,0.67
2023-01-25T05:34:03.606Z,0.64
2023-01-25T05:35:11.245Z,0.61
2023-01-25T05:36:13.928Z,0.61
2023-01-25T05:37:17.935Z,0.61
2023-01-25T05:38:23.000Z,0.62
2023-01-25T05:39:26.856Z,0.64
2023-01-25T05:40:31.024Z,0.67
2023-01-25T05:41:35.052Z,0.70
2023-01-25T05:42:39.118Z,0.72
2023-01-25T05:43:43.469Z,0.74
2023-01-25T05:44:48.160Z,0.76
2023-01-25T05:45:51.764Z,0.78
2023-01-25T05:46:55.889Z,0.81
2023-01-25T05:48:00.065Z,0.83
2023-01-25T05:49:10.196Z,0.84
2023-01-25T05:50:13.038Z,0.86
2023-01-25T05:51:31.107Z,0.87
2023-01-25T05:52:33.959Z,0.88
2023-01-25T05:53:38.096Z,0.88
2023-01-25T05:54:42.179Z,0.89
2023-01-25T05:55:46.303Z,0.89
2023-01-25T05:56:50.456Z,0.86
2023-01-25T05:57:54.612Z,0.82
2023-01-25T05:58:58.761Z,0.75
2023-01-25T06:00:02.886Z,0.71
2023-01-25T06:01:06.908Z,0.67
2023-01-25T06:02:11.186Z,0.66
2023-01-25T06:03:15.450Z,0.65
2023-01-25T06:04:19.468Z,0.65
2023-01-25T06:05:23.449Z,0.65
2023-01-25T06:06:27.646Z,0.66
2023-01-25T06:07:31.771Z,0.68
2023-01-25T06:08:35.877Z,0.69
2023-01-25T06:09:40.060Z,0.70
2023-01-25T06:10:44.159Z,0.71
2023-01-25T06:11:48.308Z,0.67
2023-01-25T06:12:52.418Z,0.63
2023-01-25T06:13:56.546Z,0.62
2023-01-25T06:15:00.642Z,0.63
2023-01-25T06:16:04.898Z,0.61
2023-01-25T06:17:09.003Z,0.60
2023-01-25T06:19:40.163Z,0.60
2023-01-25T06:20:44.341Z,0.62
2023-01-25T06:21:48.455Z,0.63
2023-01-25T06:22:52.608Z,0.65
2023-01-25T06:23:56.748Z,0.68
2023-01-25T06:25:00.828Z,0.72
2023-01-25T06:26:05.005Z,0.73
2023-01-25T06:27:09.197Z,0.72
2023-01-25T06:28:13.334Z,0.69
2023-01-25T06:29:17.383Z,0.67
2023-01-25T06:30:21.735Z,0.67
2023-01-25T06:31:25.842Z,0.68
2023-01-25T06:32:29.821Z,0.71
2023-01-25T06:33:33.859Z,0.71
2023-01-25T06:34:38.031Z,0.73
2023-01-25T06:35:42.256Z,0.76
2023-01-25T06:36:46.244Z,0.78
2023-01-25T06:37:50.456Z,0.80
2023-01-25T06:38:54.593Z,0.83
2023-01-25T06:39:58.770Z,0.85
2023-01-25T06:41:02.817Z,0.88
2023-01-25T06:42:07.031Z,0.90
2023-01-25T06:43:25.182Z,0.92
2023-01-25T06:44:28.099Z,0.94
2023-01-25T06:45:32.348Z,0.96
2023-01-25T06:46:36.480Z,0.97
2023-01-25T06:47:40.543Z,0.97
2023-01-25T06:48:44.750Z,0.97
2023-01-25T06:49:48.895Z,0.95
2023-01-25T06:50:53.146Z,0.91
2023-01-25T06:51:57.257Z,0.85
2023-01-25T06:53:01.411Z,0.82
2023-01-25T06:54:05.489Z,0.78
2023-01-25T06:55:10.203Z,0.72
2023-01-25T06:56:13.871Z,0.69
2023-01-25T06:57:18.002Z,0.68
2023-01-25T06:58:22.121Z,0.69
2023-01-25T06:59:26.245Z,0.72
2023-01-25T07:00:30.432Z,0.75
2023-01-25T07:01:35.863Z,0.78
2023-01-25T07:02:39.389Z,0.80
2023-01-25T07:03:43.466Z,0.83
2023-01-25T07:04:47.595Z,0.86
2023-01-25T07:05:51.840Z,0.88
2023-01-25T07:06:56.835Z,0.90
2023-01-25T07:08:03.613Z,0.92
2023-01-25T07:09:06.807Z,0.94
2023-01-25T07:10:10.993Z,0.96
2023-01-25T07:11:31.091Z,0.97
2023-01-25T07:12:34.096Z,0.99
2023-01-25T07:13:52.228Z,1.00
2023-01-25T07:14:54.794Z,1.02
2023-01-25T07:15:58.875Z,1.03
2023-01-25T07:17:04.029Z,1.04
2023-01-25T07:18:15.979Z,1.04
2023-01-25T07:19:11.442Z,1.04
2023-01-25T07:20:15.477Z,1.05
2023-01-25T07:21:19.541Z,1.05
2023-01-25T07:22:23.743Z,1.03
2023-01-25T07:23:28.025Z,1.02
2023-01-25T07:24:32.111Z,1.02
2023-01-25T07:25:36.277Z,1.01
2023-01-25T07:26:40.412Z,1.00
2023-01-25T07:27:44.486Z,1.00
2023-01-25T07:28:48.715Z,1.00
2023-01-25T07:29:52.716Z,1.00
2023-01-25T07:30:56.956Z,1.00
2023-01-25T07:32:01.262Z,1.01
2023-01-25T07:33:05.247Z,1.01
2023-01-25T07:34:09.387Z,1.02
2023-01-25T07:35:13.523Z,1.03
2023-01-25T07:36:17.683Z,1.02
2023-01-25T07:37:21.870Z,1.03
2023-01-25T07:38:26.032Z,1.01
2023-01-25T07:39:30.325Z,0.99
2023-01-25T07:40:34.513Z,0.97
2023-01-25T07:41:38.606Z,0.95
2023-01-25T07:42:42.678Z,0.96
2023-01-25T07:43:46.829Z,0.96
2023-01-25T07:44:50.950Z,0.97
2023-01-25T07:45:55.173Z,0.98
2023-01-25T07:47:13.500Z,0.98
2023-01-25T07:48:16.380Z,0.99
2023-01-25T07:49:20.448Z,0.99
2023-01-25T07:50:30.648Z,1.01
2023-01-25T07:51:33.326Z,1.02
2023-01-25T07:52:37.419Z,1.04
2023-01-25T07:53:41.523Z,1.05
2023-01-25T07:54:46.809Z,1.06
2023-01-25T07:55:49.864Z,1.07
2023-01-25T07:56:54.024Z,1.09
2023-01-25T07:57:58.208Z,1.10
2023-01-25T07:59:02.321Z,1.12
2023-01-25T08:00:06.327Z,1.13
2023-01-25T08:01:10.506Z,1.13
2023-01-25T08:02:14.613Z,1.14
2023-01-25T08:03:19.690Z,1.15
2023-01-25T08:04:23.416Z,1.16
2023-01-25T08:05:27.667Z,1.17
2023-01-25T08:06:31.677Z,1.18
2023-01-25T08:07:35.914Z,1.18
2023-01-25T08:08:39.986Z,1.20
2023-01-25T08:09:44.109Z,1.21
2023-01-25T08:10:48.228Z,1.20
2023-01-25T08:11:52.318Z,1.17
2023-01-25T08:12:56.532Z,1.12
2023-01-25T08:14:00.675Z,1.07
2023-01-25T08:15:04.796Z,1.01
2023-01-25T08:16:08.923Z,0.96
2023-01-25T08:17:13.190Z,0.95
2023-01-25T08:18:17.294Z,0.96
2023-01-25T08:19:21.379Z,0.98
2023-01-25T08:20:25.458Z,1.01
2023-01-25T08:21:29.678Z,1.04
2023-01-25T08:22:33.683Z,1.06
2023-01-25T08:23:37.922Z,1.09
2023-01-25T08:24:42.154Z,1.12
2023-01-25T08:25:46.167Z,1.15
2023-01-25T08:26:50.372Z,1.18
2023-01-25T08:27:54.359Z,1.19
2023-01-25T08:28:58.486Z,1.20
2023-01-25T08:30:02.717Z,1.21
2023-01-25T08:31:06.833Z,1.21
2023-01-25T08:32:10.945Z,1.22
2023-01-25T08:33:15.087Z,1.23
2023-01-25T08:34:19.343Z,1.22
2023-01-25T08:35:23.416Z,1.22
2023-01-25T08:36:27.533Z,1.22
2023-01-25T08:37:31.670Z,1.23
2023-01-25T08:38:35.728Z,1.23
2023-01-25T08:39:39.944Z,1.24
2023-01-25T08:40:44.088Z,1.24
2023-01-25T08:41:48.362Z,1.23
2023-01-25T08:42:52.489Z,1.24
2023-01-25T08:43:56.584Z,1.23
2023-01-25T08:45:00.873Z,1.22
2023-01-25T08:46:04.924Z,1.21
2023-01-25T08:47:09.119Z,1.21
2023-01-25T08:48:13.183Z,1.21
2023-01-25T08:49:24.323Z,1.21
2023-01-25T08:50:26.911Z,1.21
2023-01-25T08:51:30.905Z,1.21
2023-01-25T08:52:35.176Z,1.20
2023-01-25T08:53:39.246Z,1.18
2023-01-25T08:54:43.358Z,1.19
2023-01-25T08:55:47.533Z,1.21
2023-01-25T08:56:51.683Z,1.23
2023-01-25T08:57:56.647Z,1.25
2023-01-25T08:58:59.957Z,1.27
2023-01-25T09:00:04.120Z,1.27
2023-01-25T09:01:08.130Z,1.28
2023-01-25T09:02:12.332Z,1.28
2023-01-25T09:03:16.655Z,1.27
2023-01-25T09:04:20.684Z,1.24
2023-01-25T09:05:24.832Z,1.19
2023-01-25T09:06:29.038Z,1.16
2023-01-25T09:07:33.185Z,1.16
2023-01-25T09:08:37.206Z,1.16
2023-01-25T09:09:41.370Z,1.14
2023-01-25T09:10:46.018Z,1.13
2023-01-25T09:11:52.945Z,1.14
2023-01-25T09:12:56.121Z,1.16
2023-01-25T09:14:00.243Z,1.18
2023-01-25T09:15:04.327Z,1.18
2023-01-25T09:16:08.593Z,1.18
2023-01-25T09:17:12.691Z,1.19
2023-01-25T09:18:16.904Z,1.23
2023-01-25T09:19:21.021Z,1.26
2023-01-25T09:20:25.026Z,1.29
2023-01-25T09:21:29.150Z,1.32
2023-01-25T09:22:33.248Z,1.35
2023-01-25T09:23:50.321Z,1.38
2023-01-25T09:24:41.643Z,1.42
2023-01-25T09:25:45.783Z,1.42
2023-01-25T09:26:58.968Z,1.41
2023-01-25T09:27:54.172Z,1.37
2023-01-25T09:28:58.315Z,1.32
2023-01-25T09:30:05.473Z,1.30
2023-01-25T09:31:26.041Z,1.27
2023-01-25T09:32:10.883Z,1.24
2023-01-25T09:33:14.841Z,1.23
2023-01-25T09:34:19.139Z,1.25
2023-01-25T09:35:23.225Z,1.27
2023-01-25T09:36:27.228Z,1.26
2023-01-25T09:37:31.356Z,1.26
2023-01-25T09:38:35.657Z,1.25
2023-01-25T09:39:39.936Z,1.25
2023-01-25T09:40:44.012Z,1.26
2023-01-25T09:41:48.215Z,1.28
2023-01-25T09:42:52.388Z,1.25
2023-01-25T09:43:56.891Z,1.23
2023-01-25T09:45:00.704Z,1.23
2023-01-25T09:46:04.771Z,1.25
2023-01-25T09:47:08.944Z,1.27
2023-01-25T09:48:13.006Z,1.28
2023-01-25T09:49:18.227Z,1.29
2023-01-25T09:50:21.985Z,1.31
2023-01-25T09:51:26.110Z,1.33
2023-01-25T09:52:30.218Z,1.36
2023-01-25T09:53:34.331Z,1.38
2023-01-25T09:54:46.484Z,1.39
2023-01-25T09:55:42.719Z,1.40
2023-01-25T09:56:46.770Z,1.41
2023-01-25T09:57:50.990Z,1.41
2023-01-25T09:58:54.959Z,1.42
2023-01-25T10:00:01.050Z,1.42
2023-01-25T10:01:05.916Z,1.42
2023-01-25T10:02:07.589Z,1.43
2023-01-25T10:03:11.706Z,1.43
2023-01-25T10:04:15.863Z,1.43
2023-01-25T10:05:19.981Z,1.45
2023-01-25T10:06:24.086Z,1.47
2023-01-25T10:07:28.336Z,1.48
2023-01-25T10:08:32.441Z,1.50
2023-01-25T10:09:36.638Z,1.47
2023-01-25T10:10:40.808Z,1.46
2023-01-25T10:11:45.499Z,1.47
2023-01-25T10:12:49.077Z,1.47
2023-01-25T10:13:53.215Z,1.49
2023-01-25T10:14:58.336Z,1.51
2023-01-25T10:16:02.096Z,1.52
2023-01-25T10:17:06.204Z,1.53
2023-01-25T10:18:10.536Z,1.53
2023-01-25T10:19:14.674Z,1.53
2023-01-25T10:20:18.822Z,1.54
2023-01-25T10:21:22.943Z,1.54
2023-01-25T10:22:28.865Z,1.54
2023-01-25T10:23:31.248Z,1.53
2023-01-25T10:24:35.474Z,1.53
2023-01-25T10:25:39.699Z,1.53
2023-01-25T10:26:43.828Z,1.53
2023-01-25T10:27:47.933Z,1.53
2023-01-25T10:28:52.132Z,1.54
2023-01-25T10:29:56.471Z,1.55
2023-01-25T10:31:00.767Z,1.56
2023-01-25T10:32:04.708Z,1.57
2023-01-25T10:33:08.993Z,1.56
2023-01-25T10:34:13.103Z,1.52
2023-01-25T10:35:29.183Z,1.47
2023-01-25T10:36:21.481Z,1.44
2023-01-25T10:37:25.608Z,1.39
2023-01-25T10:38:29.769Z,1.34
2023-01-25T10:39:33.914Z,1.31
2023-01-25T10:40:38.015Z,1.31
2023-01-25T10:41:42.179Z,1.33
2023-01-25T10:42:46.495Z,1.35
2023-01-25T10:43:50.529Z,1.38
2023-01-25T10:44:55.618Z,1.39
2023-01-25T10:45:59.392Z,1.40
2023-01-25T10:47:03.533Z,1.40
2023-01-25T10:48:07.610Z,1.39
2023-01-25T10:49:11.814Z,1.35
2023-01-25T10:50:15.966Z,1.32
2023-01-25T10:51:20.039Z,1.29
2023-01-25T10:52:24.206Z,1.28
2023-01-25T10:53:28.385Z,1.28
2023-01-25T10:54:32.420Z,1.29
2023-01-25T10:55:36.737Z,1.30
2023-01-25T10:56:40.813Z,1.29
2023-01-25T10:57:45.087Z,1.31
2023-01-25T10:58:49.262Z,1.33
2023-01-25T10:59:53.403Z,1.33
2023-01-25T11:00:57.618Z,1.33
2023-01-25T11:02:01.836Z,1.32
2023-01-25T11:03:06.044Z,1.33
2023-01-25T11:04:10.099Z,1.36
2023-01-25T11:05:14.197Z,1.35
2023-01-25T11:06:18.425Z,1.35
2023-01-25T11:07:22.548Z,1.33
2023-01-25T11:08:26.674Z,1.31
2023-01-25T11:09:30.843Z,1.31
2023-01-25T11:10:35.871Z,1.32
2023-01-25T11:11:41.416Z,1.33
2023-01-25T11:12:43.604Z,1.33
2023-01-25T11:13:47.748Z,1.33
2023-01-25T11:14:52.113Z,1.32
2023-01-25T11:15:56.251Z,1.33
2023-01-25T11:17:00.282Z,1.35
2023-01-25T11:18:04.486Z,1.35
2023-01-25T11:19:08.684Z,1.35
2023-01-25T11:20:12.804Z,1.35
2023-01-25T11:21:17.000Z,1.34
2023-01-25T11:22:21.259Z,1.35
2023-01-25T11:23:25.290Z,1.37
2023-01-25T11:24:29.538Z,1.38
2023-01-25T11:25:33.672Z,1.38
2023-01-25T11:26:37.796Z,1.38
2023-01-25T11:27:41.839Z,1.39
2023-01-25T11:28:45.988Z,1.40
2023-01-25T11:29:50.357Z,1.43
2023-01-25T11:30:54.573Z,1.46
2023-01-25T11:31:58.661Z,1.49
2023-01-25T11:33:02.597Z,1.53
2023-01-25T11:34:06.910Z,1.57
2023-01-25T11:35:12.894Z,1.59
2023-01-25T11:36:15.230Z,1.60
2023-01-25T11:37:19.417Z,1.61
2023-01-25T11:38:23.718Z,1.58
2023-01-25T11:39:27.759Z,1.54
2023-01-25T11:40:31.879Z,1.52
2023-01-25T11:41:36.100Z,1.53
2023-01-25T11:42:40.284Z,1.54
2023-01-25T11:43:44.412Z,1.57
2023-01-25T11:44:48.588Z,1.60
2023-01-25T11:45:52.729Z,1.63
2023-01-25T11:46:56.811Z,1.65
2023-01-25T11:48:00.986Z,1.68
2023-01-25T11:49:05.213Z,1.69
2023-01-25T11:50:09.618Z,1.72
2023-01-25T11:51:13.613Z,1.74
2023-01-25T11:52:18.660Z,1.77
2023-01-25T11:53:22.592Z,1.79
2023-01-25T11:54:26.683Z,1.80
2023-01-25T11:55:30.841Z,1.81
2023-01-25T11:56:34.952Z,1.82
2023-01-25T11:57:39.142Z,1.83
2023-01-25T11:58:43.228Z,1.83
2023-01-25T11:59:47.406Z,1.84
2023-01-25T12:00:51.711Z,1.85
2023-01-25T12:01:55.779Z,1.85
2023-01-25T12:02:59.878Z,1.87
2023-01-25T12:04:04.217Z,1.88
2023-01-25T12:05:16.213Z,1.90
2023-01-25T12:06:12.382Z,1.92
2023-01-25T12:07:16.341Z,1.93
2023-01-25T12:08:20.596Z,1.93
2023-01-25T12:09:24.668Z,1.94
2023-01-25T12:10:28.798Z,1.95
2023-01-25T12:11:32.890Z,1.95
2023-01-25T12:12:37.085Z,1.96
2023-01-25T12:13:41.297Z,1.97
2023-01-25T12:14:45.325Z,1.97
2023-01-25T12:15:49.549Z,1.99
2023-01-25T12:16:53.559Z,2.00
2023-01-25T12:17:57.814Z,2.02
2023-01-25T12:19:02.177Z,2.02
2023-01-25T12:20:06.180Z,2.02
2023-01-25T12:21:10.462Z,2.03
2023-01-25T12:22:14.437Z,2.03
2023-01-25T12:23:18.665Z,2.04
2023-01-25T12:24:22.859Z,2.04
2023-01-25T12:25:26.937Z,2.05
2023-01-25T12:26:30.956Z,2.06
2023-01-25T12:27:35.072Z,2.07
2023-01-25T12:28:39.278Z,2.08
2023-01-25T12:29:43.532Z,2.09
2023-01-25T12:30:47.694Z,2.10
2023-01-25T12:31:51.680Z,2.11
2023-01-25T12:33:08.836Z,2.11
2023-01-25T12:34:16.018Z,2.10
2023-01-25T12:35:18.805Z,2.09
2023-01-25T12:36:22.894Z,2.09
2023-01-25T12:37:27.022Z,2.11
2023-01-25T12:38:31.148Z,2.11
2023-01-25T12:39:35.290Z,2.12
2023-01-25T12:40:39.432Z,2.13
2023-01-25T12:41:43.495Z,2.14
2023-01-25T12:42:47.713Z,2.15
2023-01-25T12:43:51.818Z,2.15
2023-01-25T12:44:55.929Z,2.15
2023-01-25T12:46:00.163Z,2.15
2023-01-25T12:47:04.409Z,2.15
2023-01-25T12:48:08.568Z,2.14
2023-01-25T12:49:12.733Z,2.13
2023-01-25T12:50:17.013Z,2.11
2023-01-25T12:51:21.149Z,2.10
2023-01-25T12:52:25.230Z,2.09
2023-01-25T12:53:29.360Z,2.08
2023-01-25T12:54:33.386Z,2.06
2023-01-25T12:55:37.596Z,2.05
2023-01-25T12:56:41.709Z,2.04
2023-01-25T12:57:45.849Z,2.03
2023-01-25T12:58:50.001Z,2.02
2023-01-25T12:59:57.159Z,2.02
2023-01-25T13:01:00.430Z,2.02
2023-01-25T13:02:04.576Z,2.02
2023-01-25T13:03:08.535Z,2.01
2023-01-25T13:04:12.754Z,1.99
2023-01-25T13:05:16.898Z,1.99
2023-01-25T13:06:21.195Z,1.99
2023-01-25T13:07:25.197Z,1.98
2023-01-25T13:08:32.120Z,1.98
2023-01-25T13:09:33.553Z,1.99
2023-01-25T13:10:37.692Z,1.96
2023-01-25T13:11:42.734Z,1.94
2023-01-25T13:12:46.550Z,1.91
2023-01-25T13:13:50.746Z,1.90
2023-01-25T13:14:54.920Z,1.86
2023-01-25T13:15:59.022Z,1.85
2023-01-25T13:17:10.061Z,1.86
2023-01-25T13:18:07.385Z,1.88
2023-01-25T13:19:11.620Z,1.88
2023-01-25T13:20:15.702Z,1.87
2023-01-25T13:21:19.943Z,1.85
2023-01-25T13:22:24.106Z,1.83
2023-01-25T13:23:28.269Z,1.81
2023-01-25T13:24:32.520Z,1.82
2023-01-25T13:25:36.608Z,1.82
2023-01-25T13:26:40.785Z,1.82
2023-01-25T13:27:44.817Z,1.82
2023-01-25T13:28:48.916Z,1.82
2023-01-25T13:29:53.137Z,1.83
2023-01-25T13:30:57.402Z,1.82
2023-01-25T13:32:01.426Z,1.82
2023-01-25T13:33:05.532Z,1.82
2023-01-25T13:34:09.705Z,1.81
2023-01-25T13:35:13.826Z,1.78
2023-01-25T13:36:17.995Z,1.76
2023-01-25T13:37:22.164Z,1.73
2023-01-25T13:38:26.289Z,1.71
2023-01-25T13:39:30.426Z,1.71
2023-01-25T13:40:34.710Z,1.72
2023-01-25T13:41:38.803Z,1.73
2023-01-25T13:42:43.042Z,1.74
2023-01-25T13:43:47.246Z,1.76
2023-01-25T13:44:51.960Z,1.80
2023-01-25T13:45:55.650Z,1.83
2023-01-25T13:46:59.666Z,1.85
2023-01-25T13:48:03.875Z,1.88
2023-01-25T13:49:07.912Z,1.91
2023-01-25T13:50:12.396Z,1.93
2023-01-25T13:51:16.290Z,1.94
2023-01-25T13:52:20.386Z,1.95
2023-01-25T13:53:24.587Z,1.97
2023-01-25T13:54:28.764Z,1.97
2023-01-25T13:55:32.842Z,1.98
2023-01-25T13:56:37.062Z,2.01
2023-01-25T13:57:41.194Z,2.03
2023-01-25T13:58:45.321Z,2.05
2023-01-25T13:59:50.796Z,2.07
2023-01-25T14:00:53.679Z,2.07
2023-01-25T14:01:57.873Z,2.08
2023-01-25T14:03:01.885Z,2.08
2023-01-25T14:04:06.151Z,2.09
2023-01-25T14:05:10.288Z,2.09
2023-01-25T14:06:17.531Z,2.08
2023-01-25T14:07:20.797Z,2.08
2023-01-25T14:08:30.990Z,2.07
2023-01-25T14:09:33.704Z,2.06
2023-01-25T14:10:37.863Z,2.06
2023-01-25T14:11:42.004Z,2.05
2023-01-25T14:12:46.198Z,2.04
2023-01-25T14:13:50.233Z,2.02
2023-01-25T14:14:54.421Z,2.02
2023-01-25T14:15:58.687Z,2.01
2023-01-25T14:17:02.890Z,2.01
2023-01-25T14:18:07.039Z,1.99
2023-01-25T14:19:11.243Z,1.99
2023-01-25T14:20:15.458Z,1.99